KQEV

Gongju Rws

Gongju Rws, South Korea
METAR KQEV 231120Z AUTO 21001KT 4800 BR CLR 10/10 A3005 RMK A02 TSNO
Observed Flight Rules
Oct-23 @ 11:20 UTC (30 minutes ago) Instrument Flight Rules
Wind Visibility Clouds Conditions
210° at 1 knots 4,796 meters
  • Clear skies
  • Mist
Temperatures Readings
Current 10°C / 50°F
Dewpoint 10°C / 50°F
Humidity 100%
Altimeter 30.05" Hg
Pressure 1018 hPa
METAR KQEV 231120Z AUTO 21001KT 4800 BR CLR 10/10 A3005 RMK A02 TSNO
Observed Flight Rules
Oct-23 @ 11:20 UTC
(30 minutes ago)
IFR
Wind Visibility
210° at 1 knots 4,796 meters
Clouds
  • Clear skies
Conditions
  • Mist
Temperature Dewpoint
10°C / 50°F 10°C / 50°F
Humidity Altimeter Pressure
100% 30.05" Hg 1018 hPa